Latest Coastal Weather Observations for Cape Sorell

IDT60701

Issued at 2:55 pm EST Tuesday 2 September 2014 (issued every 10 minutes, with the page automatically refreshed every 10 minutes)

About coastal observations | Map of coastal stations | Coastal observations for TAS | Marine services | Other Formats
Station Details ID: 097000 Name: CAPE SORELL Lat: -42.20 Lon: 145.17 Height: 19.3 m
Data from the previous 72 hours. | See also: Recent months at Cape Sorell
Date/Time
EST
Temp

°C
Wind Pressure Rain
since 9am
mm
Weather Cloud Vis
km
Sea
Height
m
Swell
Dir
 
Speed
knots
Gust
knots
hPa Trend Height
m
Period
s
Dir
02/02:30pm 10.1 SSW 18 21 1019.4 - 1.6 - - - - - - -
02/02:00pm 9.3 S 17 22 1019.3 - 1.6 - - - - - - -
02/01:53pm 9.1 S 16 20 1019.2 - 1.6 - - - - - - -
02/01:30pm 8.7 SW 8 10 1019.5 - 1.4 - - - - - - -
02/01:00pm 9.8 SW 19 25 1019.2 - 0.0 - - - - - - -
02/12:30pm 11.3 SSW 15 19 1019.3 - 0.0 - - - - - - -
02/12:00pm 12.0 SW 10 12 1019.6 - 0.0 - - - - - - -
02/11:30am 12.3 SW 9 11 1019.7 - 0.0 - - - - - - -
02/11:00am 12.0 SW 2 4 1019.8 - 0.0 - - - - - - -
02/10:30am 11.3 SE 2 4 1019.7 - 0.0 - - - - - - -
02/10:00am 11.3 S 4 7 1019.5 - 0.0 - - - - - - -
02/09:30am 11.2 ESE 5 7 1019.3 - 0.0 - - - - - - -
02/09:00am 11.1 SE 4 7 1019.1 - 2.2 - - - - - - -
02/08:30am 8.5 S 6 10 1018.8 - 2.2 - - - - - - -
02/08:00am 9.0 E 6 8 1018.4 - 2.2 - - - - - - -
02/07:30am 7.3 E 8 9 1017.9 - 2.2 - - - - - - -
02/07:00am 6.1 E 9 10 1017.5 - 2.2 - - - - - - -
02/06:30am 6.2 ESE 8 10 1017.2 - 2.2 - - - - - - -
02/06:00am 6.5 ESE 7 9 1016.9 - 2.2 - - - - - - -
02/05:30am 6.3 ESE 8 11 1016.3 - 2.2 - - - - - - -
02/05:00am 6.6 ESE 8 11 1015.9 - 2.2 - - - - - - -
02/04:30am 7.1 SE 9 13 1015.4 - 2.2 - - - - - - -
02/04:00am 7.4 SSE 11 15 1015.0 - 2.2 - - - - - - -
02/03:30am 8.0 SSE 12 16 1014.8 - 2.2 - - - - - - -
02/03:00am 7.7 SSE 11 16 1014.4 - 2.2 - - - - - - -
02/02:30am 7.8 SSE 12 15 1014.1 - 2.2 - - - - - - -
02/02:00am 7.3 SE 10 14 1013.9 - 2.2 - - - - - - -
02/01:30am 7.4 SE 9 13 1013.7 - 2.2 - - - - - - -
02/01:00am 7.6 SSE 9 13 1013.4 - 2.2 - - - - - - -
02/12:30am 7.8 SE 10 15 1013.1 - 2.2 - - - - - - -
02/12:00am 8.1 SE 13 19 1012.8 - 2.2 - - - - - - -
 
Date/Time
EST
Temp

°C
Wind Pressure Rain
since 9am
mm
Weather Cloud Vis
km
Sea
Height
m
Swell
Dir
 
Speed
knots
Gust
knots
hPa Trend Height
m
Period
s
Dir
01/11:30pm 8.2 SSE 12 19 1012.4 - 2.2 - - - - - - -
01/11:00pm 8.7 S 13 18 1012.0 - 2.2 - - - - - - -
01/10:30pm 9.2 S 9 12 1011.8 - 2.2 - - - - - - -
01/10:00pm 9.7 SSW 14 17 1011.4 - 2.2 - - - - - - -
01/09:30pm 9.7 SSW 11 14 1011.1 - 2.2 - - - - - - -
01/09:00pm 9.1 S 12 15 1010.8 - 2.2 Recent precip. - - - - - -
01/08:30pm 8.8 S 11 16 1010.6 - 2.2 - - - - - - -
01/08:00pm 9.0 SSE 6 8 1010.0 - 2.0 - - - - - - -
01/07:30pm 9.4 S 9 12 1009.6 - 2.0 - - - - - - -
01/07:00pm 9.5 S 20 26 1009.0 - 1.6 - - - - - - -
01/06:51pm 10.1 S 21 24 1008.8 - 1.4 - - - - - - -
01/06:30pm 10.2 S 7 9 1008.5 - 1.4 - - - - - - -
01/06:00pm 10.0 S 6 9 1008.0 - 1.4 - - - - - - -
01/05:30pm 9.9 SSE 8 11 1007.6 - 1.4 - - - - - - -
01/05:00pm 10.7 S 11 14 1007.1 - 1.4 - - - - - - -
01/04:30pm 10.6 S 14 19 1006.5 - 1.4 - - - - - - -
01/04:00pm 10.3 S 17 25 1006.0 - 1.4 - - - - - - -
01/03:52pm 10.7 S 15 25 1005.9 - 1.4 - - - - - - -
01/03:30pm 10.5 S 15 19 1005.7 - 1.4 - - - - - - -
01/03:00pm 10.2 S 15 19 1005.2 - 1.4 Recent precip. - - - - - -
01/02:30pm 9.9 S 25 29 1004.8 - 1.4 - - - - - - -
01/02:00pm 10.9 S 18 23 1004.5 - 1.0 - - - - - - -
01/01:30pm 11.1 S 18 21 1004.5 - 1.0 - - - - - - -
01/01:00pm 10.8 S 15 20 1004.4 - 1.0 - - - - - - -
01/12:30pm 10.9 S 19 24 1004.3 - 1.0 - - - - - - -
01/12:00pm 10.9 SSW 19 23 1004.0 - 1.0 Recent precip. - - - - - -
01/11:30am 10.7 SSW 20 23 1003.7 - 1.0 - - - - - - -
01/11:00am 11.1 SSW 18 21 1003.8 - 0.8 - - - - - - -
01/10:30am 11.2 SSW 18 21 1003.3 - 0.6 - - - - - - -
01/10:26am 11.2 SSW 19 21 1003.1 - 0.6 - - - - - - -
01/10:00am 11.3 SW 7 8 1003.3 - 0.6 - - - - - - -
01/09:30am 11.3 SSW 11 12 1002.6 - 0.4 - - - - - - -
01/09:00am 11.1 SW 12 13 1002.6 - 12.2 Rain - - - - - -
01/08:30am 10.5 W 11 18 1002.8 - 10.4 - - - - - - -
01/08:00am 12.2 N 17 28 1002.0 - 6.4 - - - - - - -
01/07:59am 12.2 N 16 25 1002.1 - 6.2 - - - - - - -
01/07:30am 12.3 N 13 14 1002.1 - 4.4 - - - - - - -
01/07:00am 12.6 N 18 22 1002.0 - 3.8 - - - - - - -
01/06:30am 12.6 N 19 24 1002.2 - 3.6 - - - - - - -
01/06:00am 12.6 N 21 26 1002.5 - 3.2 Recent precip. - - - - - -
01/05:30am 12.4 N 18 22 1003.1 - 2.8 - - - - - - -
01/05:00am 12.5 N 18 22 1003.6 - 2.6 - - - - - - -
01/04:30am 12.6 N 17 21 1003.8 - 1.6 - - - - - - -
01/04:00am 12.7 N 22 27 1004.3 - 1.4 - - - - - - -
01/03:30am 13.1 N 22 27 1004.4 - 0.8 - - - - - - -
01/03:00am 13.3 NNW 19 27 1004.9 - 0.6 Rain - - - - - -
01/02:30am 13.8 N 24 30 1005.0 - 0.2 - - - - - - -
01/02:00am 14.0 N 24 29 1004.8 - 0.2 - - - - - - -
01/01:30am 15.2 N 22 29 1004.9 - 0.0 - - - - - - -
01/01:24am 15.0 NNW 18 29 1005.0 - 0.0 - - - - - - -
01/01:00am 14.5 N 23 28 1004.6 - 0.0 - - - - - - -
01/12:30am 14.6 N 25 32 1004.6 - 0.0 - - - - - - -
01/12:00am 14.4 N 25 30 1005.1 - 0.0 - - - - - - -
 
Date/Time
EST
Temp

°C
Wind Pressure Rain
since 9am
mm
Weather Cloud Vis
km
Sea
Height
m
Swell
Dir
 
Speed
knots
Gust
knots
hPa Trend Height
m
Period
s
Dir
31/11:30pm 14.6 N 26 32 1004.8 - 0.0 - - - - - - -
31/11:00pm 14.6 N 26 31 1005.4 - 0.0 - - - - - - -
31/10:30pm 15.0 NNE 28 34 1005.7 - 0.0 - - - - - - -
31/10:00pm 15.1 N 28 33 1006.3 - 0.0 - - - - - - -
31/09:30pm 14.6 NNE 23 27 1006.8 - 0.0 - - - - - - -
31/09:00pm 14.6 NNE 23 28 1007.1 - 0.0 - - - - - - -
31/08:30pm 14.6 NNE 22 26 1007.4 - 0.0 - - - - - - -
31/08:00pm 14.6 NNE 22 27 1007.7 - 0.0 - - - - - - -
31/07:30pm 14.8 NNE 21 27 1007.9 - 0.0 - - - - - - -
31/07:00pm 14.9 N 20 23 1007.9 - 0.0 - - - - - - -
31/06:30pm 15.0 N 19 22 1008.0 - 0.0 - - - - - - -
31/06:00pm 15.1 NNE 17 20 1008.0 - 0.0 - - - - - - -
31/05:30pm 15.5 NNE 18 22 1008.1 - 0.0 - - - - - - -
31/05:00pm 15.5 N 19 21 1008.4 - 0.0 - - - - - - -
31/04:30pm 15.9 N 19 23 1008.5 - 0.0 - - - - - - -
31/04:00pm 16.0 N 20 25 1008.6 - 0.0 - - - - - - -
31/03:30pm 15.9 N 18 22 1009.0 - 0.0 - - - - - - -
31/03:00pm 16.1 NNE 20 24 1009.4 - 0.0 - - - - - - -
31/02:30pm 15.9 NNE 20 23 1009.7 - 0.0 - - - - - - -
31/02:00pm 15.9 NNE 19 22 1010.1 - 0.0 - - - - - - -
31/01:30pm 15.9 NNE 18 20 1010.7 - 0.0 - - - - - - -
31/01:00pm 16.0 NNE 17 20 1011.2 - 0.0 - - - - - - -
31/12:30pm 16.0 N 19 22 1011.8 - 0.0 - - - - - - -
31/12:00pm 15.8 N 20 23 1012.3 - 0.0 - - - - - - -
31/11:30am 15.4 N 20 23 1012.6 - 0.0 - - - - - - -
31/11:00am 15.0 N 20 23 1012.9 - 0.0 - - - - - - -
31/10:30am 14.9 N 20 24 1013.2 - 0.0 - - - - - - -
31/10:00am 14.7 NNE 15 21 1013.8 - 0.0 - - - - - - -
31/09:30am 14.7 NNE 22 26 1013.5 - 0.0 - - - - - - -
31/09:00am 14.2 NNE 23 28 1013.7 - 0.0 - - - - - - -
31/08:30am 14.2 NNE 23 28 1014.1 - 0.0 - - - - - - -
31/08:00am 13.8 NNE 24 29 1014.1 - 0.0 - - - - - - -
31/07:30am 13.4 NNE 24 29 1014.2 - 0.0 - - - - - - -
31/07:00am 13.2 NNE 24 28 1014.3 - 0.0 - - - - - - -
31/06:30am 13.1 NNE 23 28 1014.6 - 0.0 - - - - - - -
31/06:00am 13.1 NNE 23 27 1014.6 - 0.0 - - - - - - -
31/05:30am 13.0 NNE 22 26 1014.9 - 0.0 - - - - - - -
31/05:00am 13.0 NNE 21 24 1015.3 - 0.0 - - - - - - -
31/04:30am 12.9 NNE 20 24 1015.3 - 0.0 - - - - - - -
31/04:00am 12.8 NNE 21 25 1015.5 - 0.0 - - - - - - -
31/03:30am 12.8 N 21 27 1015.7 - 0.0 - - - - - - -
31/03:00am 12.8 NNE 22 28 1016.0 - 0.0 - - - - - - -
31/02:30am 12.7 NNE 22 28 1016.6 - 0.0 - - - - - - -
31/02:00am 12.6 NNE 22 28 1017.1 - 0.0 - - - - - - -
31/01:30am 12.4 NNE 25 29 1017.1 - 0.0 - - - - - - -
31/01:00am 12.3 NNE 23 29 1017.6 - 0.0 - - - - - - -
31/12:30am 12.3 NNE 21 26 1018.1 - 0.0 - - - - - - -
31/12:00am 12.5 N 22 27 1018.3 - 0.0 - - - - - - -
 
Date/Time
EST
Temp

°C
Wind Pressure Rain
since 9am
mm
Weather Cloud Vis
km
Sea
Height
m
Swell
Dir
 
Speed
knots
Gust
knots
hPa Trend Height
m
Period
s
Dir
30/11:30pm 12.7 NNE 22 27 1018.2 - 0.0 - - - - - - -
30/11:00pm 12.8 NNE 24 29 1018.5 - 0.0 - - - - - - -
30/10:30pm 12.9 NNE 25 31 1018.4 - 0.0 - - - - - - -
30/10:00pm 13.1 NNE 23 29 1019.0 - 0.0 - - - - - - -
30/09:30pm 13.2 NNE 22 28 1019.2 - 0.0 - - - - - - -
30/09:00pm 13.3 NNE 20 25 1019.7 - 0.0 - - - - - - -
30/08:30pm 13.4 NNE 19 24 1020.3 - 0.0 - - - - - - -
30/08:00pm 13.6 NNE 17 22 1020.6 - 0.0 - - - - - - -
30/07:30pm 13.8 NNE 18 22 1020.5 - 0.0 - - - - - - -
30/07:00pm 14.2 N 16 20 1020.6 - 0.0 - - - - - - -
30/06:30pm 14.5 N 14 17 1020.8 - 0.0 - - - - - - -
30/06:00pm 15.1 N 15 18 1020.8 - 0.0 - - - - - - -
30/05:30pm 15.2 N 15 17 1020.7 - 0.0 - - - - - - -
30/05:17pm 15.3 N 15 19 1020.6 - 0.0 - - - - - - -
30/05:00pm 14.7 SW 2 7 1020.8 - 0.0 - - - - - - -
30/04:30pm 15.0 SSW 3 4 1021.3 - 0.0 - - - - - - -
30/04:00pm 15.6 SSW 3 4 1021.4 - 0.0 - - - - - - -
30/03:30pm 14.9 SSW 2 3 1021.7 - 0.0 - - - - - - -
30/03:00pm 15.0 SSW 3 3 1022.0 - 0.0 - - - - - - -

Other Formats:

Comma delimited format used in spreadsheet applications
http://www.bom.gov.au/fwo/IDT60701/IDT60701.94974.axf

JavaScript Object Notation format (JSON) in row-major order
http://www.bom.gov.au/fwo/IDT60701/IDT60701.94974.json